Latest Weather Observations for Neptune Island

IDS60801

Issued at 8:35 pm CST Wednesday 17 September 2014 (issued every 30 minutes, with the page automatically refreshed every 10 minutes)

About weather observations | Map of weather stations | Latest weather observations for SA | Other Formats
Station Details ID: 018115 Name: NEPTUNE ISLAND Lat: -35.34 Lon: 136.12 Height: 32.0 m
Data from the previous 72 hours. | See also: Recent months at Neptune Island
Date/Time
CST
Temp
°C
App
Temp
°C
Dew
Point
Rel
Hum
%
Delta-T
°C
Wind Press
QNH
hPa
Press
MSL
hPa
Rain
since 9 am
mm
Dir
 
Spd
km/h
Gust
km/h
Spd
kts
Gust
kts
17/08:30pm 12.3 7.4 4.3 58 3.6 S 19 22 10 12 1024.9 1024.9 0.0
17/08:00pm 12.3 7.4 4.0 57 3.7 SSW 19 24 10 13 1024.7 1024.7 0.0
17/07:30pm 12.2 7.1 3.2 54 4.0 SSE 19 24 10 13 1024.7 1024.7 0.0
17/07:00pm 12.2 7.5 3.4 55 3.9 S 17 26 9 14 1024.5 1024.5 0.0
17/06:30pm 12.3 7.4 4.0 57 3.7 SSW 19 24 10 13 1024.2 1024.2 0.0
17/06:00pm 12.5 6.5 3.5 54 4.0 SSW 24 32 13 17 1024.2 1024.2 0.0
17/05:30pm 12.8 7.0 4.3 56 3.8 S 24 32 13 17 1023.9 1023.9 0.0
17/05:00pm 13.1 7.4 4.8 57 3.8 S 24 30 13 16 1023.6 1023.6 0.0
17/04:30pm 13.0 7.9 4.2 55 4.0 S 20 28 11 15 1023.4 1023.4 0.0
17/04:00pm 13.6 8.3 5.0 56 4.0 S 22 30 12 16 1023.0 1023.0 0.0
17/03:30pm 13.5 8.1 4.4 54 4.2 S 22 28 12 15 1022.9 1022.9 0.0
17/03:00pm 13.9 8.7 5.5 57 3.9 S 22 28 12 15 1022.9 1022.9 0.0
17/02:30pm 13.8 8.5 5.2 56 4.0 S 22 28 12 15 1023.1 1023.1 0.0
17/02:00pm 14.3 9.5 5.4 55 4.2 S 20 26 11 14 1022.9 1022.9 0.0
17/01:30pm 14.3 8.9 4.6 52 4.5 S 22 32 12 17 1022.9 1022.9 0.0
17/01:00pm 14.1 8.0 4.7 53 4.4 S 26 30 14 16 1022.7 1022.7 0.0
17/12:30pm 14.2 8.3 5.8 57 4.0 S 26 30 14 16 1022.7 1022.7 0.0
17/12:00pm 14.4 7.9 6.3 58 3.9 S 30 35 16 19 1023.0 1023.0 0.0
17/11:30am 14.1 7.8 5.5 56 4.0 S 28 33 15 18 1023.0 1023.0 0.0
17/11:00am 14.6 8.7 5.9 56 4.2 SSW 26 32 14 17 1022.9 1022.9 0.0
17/10:30am 14.3 7.4 6.6 60 3.7 SSW 32 43 17 23 1022.8 1022.8 0.0
17/10:00am 13.9 7.1 7.0 63 3.4 SSW 32 39 17 21 1022.9 1022.9 0.0
17/09:30am 13.5 7.1 7.1 65 3.1 SSW 30 37 16 20 1022.6 1022.6 0.0
17/09:00am 13.2 6.6 7.6 69 2.7 SSW 32 39 17 21 1022.2 1022.2 1.4
17/08:30am 13.5 6.9 7.9 69 2.8 SSW 32 39 17 21 1021.9 1021.9 1.4
17/08:00am 13.4 6.7 8.0 70 2.7 S 33 41 18 22 1021.6 1021.6 1.4
17/07:30am 12.7 5.9 7.0 68 2.7 SSW 32 41 17 22 1021.2 1021.2 1.4
17/07:00am 12.7 5.5 7.6 71 2.5 SSW 35 41 19 22 1020.6 1020.6 1.4
17/06:30am 12.7 6.0 8.0 73 2.3 SSW 33 41 18 22 1020.4 1020.4 1.4
17/06:00am 12.6 5.8 7.9 73 2.3 SSW 33 39 18 21 1020.1 1020.1 1.4
17/05:30am 12.5 5.4 8.0 74 2.2 SSW 35 41 19 22 1019.7 1019.7 1.4
17/05:00am 12.5 5.8 8.0 74 2.2 SSW 33 39 18 21 1019.4 1019.4 1.4
17/04:30am 12.6 7.0 8.9 78 1.9 SW 28 35 15 19 1019.3 1019.3 1.4
17/04:00am 12.5 6.1 8.6 77 1.9 SW 32 39 17 21 1019.2 1019.2 1.4
17/03:30am 12.1 5.6 8.2 77 1.9 SW 32 39 17 21 1019.1 1019.1 1.4
17/03:00am 12.6 6.7 8.9 78 1.9 SSW 30 35 16 19 1019.0 1019.0 0.4
17/02:30am 12.7 5.6 8.0 73 2.3 SW 35 43 19 23 1019.2 1019.2 0.4
17/02:00am 12.9 5.9 8.4 74 2.2 SW 35 41 19 22 1019.2 1019.2 0.4
17/01:30am 12.9 6.0 8.8 76 2.1 SW 35 41 19 22 1019.3 1019.3 0.4
17/01:00am 12.9 5.6 8.6 75 2.1 SW 37 43 20 23 1019.4 1019.4 0.4
17/12:30am 12.7 4.6 8.8 77 1.9 WSW 41 48 22 26 1019.4 1019.4 0.4
17/12:00am 12.9 6.5 9.2 78 1.9 WSW 33 41 18 22 1019.7 1019.7 0.4
 
Date/Time
CST
Temp
°C
App
Temp
°C
Dew
Point
Rel
Hum
%
Delta-T
°C
Wind Press
QNH
hPa
Press
MSL
hPa
Rain
since 9 am
mm
Dir
 
Spd
km/h
Gust
km/h
Spd
kts
Gust
kts
16/11:30pm 12.5 6.0 8.8 78 1.8 WSW 33 39 18 21 1019.8 1019.8 0.4
16/11:00pm 12.2 5.1 8.1 76 2.0 WSW 35 43 19 23 1019.6 1019.6 0.4
16/10:30pm 13.3 7.3 8.6 73 2.3 WSW 30 37 16 20 1019.7 1019.7 0.0
16/10:00pm 13.5 7.7 8.1 70 2.7 WSW 28 33 15 18 1019.7 1019.7 0.0
16/09:30pm 12.8 6.0 7.0 68 2.8 WSW 32 37 17 20 1019.8 1019.8 0.0
16/09:00pm 13.1 6.3 7.1 67 2.9 WSW 32 37 17 20 1019.7 1019.7 0.0
16/08:30pm 13.3 7.4 7.3 67 2.9 WSW 28 33 15 18 1019.5 1019.5 0.0
16/08:00pm 13.2 7.4 6.3 63 3.3 SW 26 32 14 17 1019.4 1019.4 0.0
16/07:30pm 13.1 6.9 6.0 62 3.4 SW 28 35 15 19 1019.1 1019.1 0.0
16/07:00pm 13.0 6.6 5.4 60 3.5 SW 28 35 15 19 1018.6 1018.5 0.0
16/06:30pm 13.0 7.1 5.9 62 3.3 SW 26 33 14 18 1018.3 1018.2 0.0
16/06:00pm 13.2 6.1 6.3 63 3.3 SSW 33 41 18 22 1018.0 1017.9 0.0
16/05:30pm 13.4 6.6 7.0 65 3.1 SSW 32 41 17 22 1017.8 1017.7 0.0
16/05:00pm 13.6 6.2 6.7 63 3.3 SW 35 43 19 23 1017.6 1017.5 0.0
16/04:30pm 14.1 7.4 7.2 63 3.4 SW 32 39 17 21 1017.5 1017.4 0.0
16/04:00pm 14.3 7.4 7.4 63 3.4 SW 33 39 18 21 1017.3 1017.2 0.0
16/03:30pm 14.5 7.3 7.8 64 3.3 SW 35 41 19 22 1017.1 1017.0 0.0
16/03:00pm 14.7 7.7 7.0 60 3.8 SW 33 41 18 22 1017.1 1017.0 0.0
16/02:30pm 14.7 7.1 7.7 63 3.5 SW 37 44 20 24 1017.1 1017.0 0.0
16/02:00pm 14.7 8.0 8.0 64 3.3 WSW 33 43 18 23 1017.1 1017.0 0.0
16/01:30pm 14.8 7.6 7.8 63 3.5 WSW 35 43 19 23 1017.2 1017.1 0.0
16/01:00pm 14.6 7.1 8.1 65 3.3 SW 37 46 20 25 1017.3 1017.2 0.0
16/12:30pm 14.6 7.9 8.1 65 3.2 SW 33 41 18 22 1017.6 1017.5 0.0
16/12:00pm 14.9 7.6 8.6 66 3.2 SW 37 43 20 23 1017.8 1017.7 0.0
16/11:30am 14.7 7.9 9.3 70 2.8 SW 35 41 19 22 1018.1 1018.0 0.0
16/11:00am 14.8 8.1 9.8 72 2.6 SW 35 39 19 21 1018.5 1018.4 0.0
16/10:30am 14.3 7.5 9.3 72 2.6 SW 35 41 19 22 1018.3 1018.2 0.0
16/10:00am 13.8 6.3 9.5 75 2.2 SW 39 48 21 26 1018.3 1018.2 0.0
16/09:30am 14.2 7.5 9.8 75 2.3 SW 35 43 19 23 1018.3 1018.2 0.0
16/09:00am 14.2 8.2 10.2 77 2.1 WSW 32 39 17 21 1018.3 1018.2 0.4
16/08:30am 13.9 8.9 9.7 76 2.2 WSW 26 30 14 16 1018.3 1018.2 0.4
16/08:00am 13.2 7.2 8.7 74 2.3 WSW 30 41 16 22 1018.2 1018.1 0.4
16/07:30am 13.0 8.1 8.3 73 2.3 W 24 35 13 19 1018.1 1018.0 0.0
16/07:00am 14.0 8.2 9.4 74 2.4 WSW 30 35 16 19 1017.9 1017.8 0.0
16/06:30am 13.7 8.3 9.4 75 2.2 WSW 28 32 15 17 1017.8 1017.7 0.0
16/06:00am 13.4 7.1 8.9 74 2.3 WSW 32 35 17 19 1017.6 1017.5 0.0
16/05:30am 13.5 7.3 9.2 75 2.2 WSW 32 37 17 20 1017.4 1017.3 0.0
16/05:00am 13.5 7.1 9.2 75 2.2 SW 33 41 18 22 1017.3 1017.2 0.0
16/04:30am 13.6 6.8 9.1 74 2.3 SW 35 41 19 22 1017.2 1017.1 0.0
16/04:00am 13.6 7.1 9.1 74 2.3 WSW 33 39 18 21 1017.2 1017.1 0.0
16/03:30am 13.7 7.5 9.4 75 2.2 WSW 32 35 17 19 1017.1 1017.0 0.0
16/03:00am 13.6 7.5 9.6 77 2.0 WSW 32 37 17 20 1017.1 1017.0 0.0
16/02:30am 13.8 8.5 10.0 78 2.0 SW 28 32 15 17 1017.3 1017.2 0.0
16/02:00am 13.7 8.8 9.9 78 2.0 SW 26 30 14 16 1017.4 1017.3 0.0
16/01:30am 13.7 9.1 9.7 77 2.1 SW 24 30 13 16 1017.7 1017.6 0.0
16/01:00am 13.8 9.2 9.8 77 2.1 SSW 24 28 13 15 1018.0 1017.9 0.0
16/12:30am 13.7 9.1 9.7 77 2.1 SW 24 30 13 16 1018.1 1018.0 0.0
16/12:00am 13.6 8.2 9.6 77 2.0 SW 28 32 15 17 1018.2 1018.1 0.0
 
Date/Time
CST
Temp
°C
App
Temp
°C
Dew
Point
Rel
Hum
%
Delta-T
°C
Wind Press
QNH
hPa
Press
MSL
hPa
Rain
since 9 am
mm
Dir
 
Spd
km/h
Gust
km/h
Spd
kts
Gust
kts
15/11:30pm 13.7 8.7 9.7 77 2.1 SSW 26 32 14 17 1018.3 1018.2 0.0
15/11:00pm 13.8 9.2 9.8 77 2.1 SW 24 28 13 15 1018.5 1018.4 0.0
15/10:30pm 13.9 9.4 9.9 77 2.1 SW 24 30 13 16 1018.5 1018.4 0.0
15/10:00pm 13.9 9.4 9.9 77 2.1 SSW 24 28 13 15 1018.8 1018.8 0.0
15/09:30pm 14.1 9.6 9.9 76 2.2 SW 24 32 13 17 1018.8 1018.8 0.0
15/09:00pm 13.9 8.5 9.5 75 2.2 SW 28 32 15 17 1018.7 1018.7 0.0
15/08:30pm 14.1 8.8 9.7 75 2.3 SW 28 33 15 18 1018.6 1018.5 0.0
15/08:00pm 14.0 8.6 9.6 75 2.3 SSW 28 32 15 17 1018.4 1018.3 0.0
15/07:30pm 14.3 9.4 9.9 75 2.3 SSW 26 32 14 17 1018.2 1018.1 0.0
15/07:00pm 14.2 8.4 9.6 74 2.4 SSW 30 35 16 19 1018.0 1017.9 0.0
15/06:30pm 14.3 8.1 9.5 73 2.5 SSW 32 39 17 21 1017.7 1017.6 0.0
15/06:00pm 14.5 8.4 9.7 73 2.5 SSW 32 41 17 22 1017.4 1017.3 0.0
15/05:30pm 14.8 8.7 9.6 71 2.7 SSW 32 39 17 21 1017.1 1017.0 0.0
15/05:00pm 15.5 9.6 10.3 71 2.7 SSW 32 37 17 20 1016.8 1016.7 0.0
15/04:30pm 15.8 9.7 10.6 71 2.8 SSW 33 43 18 23 1016.6 1016.5 0.0
15/04:00pm 15.5 9.4 10.3 71 2.7 SSW 33 41 18 22 1016.4 1016.3 0.0
15/03:30pm 16.2 10.3 11.2 72 2.7 SSW 33 39 18 21 1016.2 1016.1 0.0
15/03:00pm 15.8 9.0 10.6 71 2.8 SSW 37 43 20 23 1016.3 1016.2 0.0
15/02:30pm 16.1 9.3 10.8 71 2.8 SSW 37 44 20 24 1016.2 1016.1 0.0
15/02:00pm 16.4 9.7 11.1 71 2.8 SSW 37 46 20 25 1016.1 1016.0 0.0
15/01:30pm 16.2 9.6 11.4 73 2.6 SSW 37 46 20 25 1016.0 1015.9 0.0
15/01:00pm 15.8 8.7 11.0 73 2.6 SSW 39 48 21 26 1016.1 1016.0 0.0
15/12:30pm 15.8 8.0 11.2 74 2.5 SSW 43 48 23 26 1016.1 1016.0 0.0
15/12:00pm 15.9 8.6 11.5 75 2.4 SSW 41 48 22 26 1016.0 1015.9 0.0
15/11:30am 15.8 9.0 11.8 77 2.2 SSW 39 46 21 25 1015.9 1015.8 0.0
15/11:00am 15.7 8.4 11.7 77 2.2 SSW 41 50 22 27 1015.9 1015.8 0.0
15/10:30am 15.3 7.4 11.5 78 2.0 SSW 44 52 24 28 1015.6 1015.5 0.0
15/10:00am 15.5 7.9 12.3 81 1.8 SSW 44 52 24 28 1015.3 1015.3 0.0
15/09:30am 15.2 8.1 12.1 82 1.7 SSW 41 50 22 27 1015.2 1015.2 0.0
15/09:00am 14.9 7.3 11.9 82 1.6 SSW 43 54 23 29 1014.8 1014.8 0.0
15/08:30am 14.8 6.7 11.9 83 1.6 SSW 46 54 25 29 1014.4 1014.4 0.0
15/08:00am 14.6 6.5 11.9 84 1.5 SSW 46 57 25 31 1014.1 1014.1 0.0
15/07:30am 14.6 5.8 12.1 85 1.4 SSW 50 61 27 33 1013.6 1013.6 0.0
15/07:00am 14.6 6.5 12.1 85 1.4 S 46 57 25 31 1013.0 1013.0 0.0
15/06:30am 14.3 5.3 11.6 84 1.4 S 50 57 27 31 1012.4 1012.4 0.0
15/06:00am 14.4 5.4 11.7 84 1.5 SSW 50 63 27 34 1012.1 1012.1 0.0
15/05:30am 14.5 6.0 12.0 85 1.4 S 48 59 26 32 1011.6 1011.6 0.0
15/05:00am 14.4 4.7 11.9 85 1.3 S 54 63 29 34 1011.2 1011.2 0.0
15/04:30am 14.4 5.1 11.9 85 1.4 S 52 65 28 35 1010.7 1010.7 0.0
15/04:00am 14.5 5.7 12.2 86 1.2 S 50 57 27 31 1010.5 1010.5 0.0
15/03:30am 14.6 6.2 12.3 86 1.3 S 48 57 26 31 1010.2 1010.2 0.0
15/03:00am 14.7 7.3 12.4 86 1.3 S 43 52 23 28 1010.1 1010.1 0.0
15/02:30am 14.8 8.2 12.5 86 1.3 S 39 46 21 25 1009.8 1009.8 0.0
15/02:00am 14.7 9.8 12.4 86 1.3 S 30 37 16 20 1009.9 1009.9 0.0
15/01:30am 14.3 10.4 12.2 87 1.1 SSW 24 33 13 18 1009.9 1009.9 0.0
15/01:00am 14.2 12.3 11.9 86 1.2 S 13 17 7 9 1010.0 1010.0 0.0
15/12:30am 14.6 12.9 12.5 87 1.1 S 13 17 7 9 1010.1 1010.1 0.0
15/12:00am 14.6 12.5 12.5 87 1.1 SSW 15 17 8 9 1010.3 1010.3 0.0
 
Date/Time
CST
Temp
°C
App
Temp
°C
Dew
Point
Rel
Hum
%
Delta-T
°C
Wind Press
QNH
hPa
Press
MSL
hPa
Rain
since 9 am
mm
Dir
 
Spd
km/h
Gust
km/h
Spd
kts
Gust
kts
14/11:30pm 15.1 11.5 13.1 88 1.1 W 24 26 13 14 1010.3 1010.3 0.0
14/11:00pm 15.0 11.8 13.0 88 1.1 W 22 26 12 14 1010.7 1010.7 0.0
14/10:30pm 15.0 11.7 12.9 87 1.2 WNW 22 28 12 15 1010.8 1010.8 0.0
14/10:00pm 15.0 11.4 12.9 87 1.2 NW 24 30 13 16 1010.9 1010.9 0.0
14/09:30pm 15.1 11.4 12.8 86 1.3 NW 24 28 13 15 1011.0 1011.0 0.0
14/09:00pm 15.2 11.2 12.9 86 1.3 WNW 26 30 14 16 1011.3 1011.3 0.0

Other Formats:

Comma delimited format used in spreadsheet applications
http://www.bom.gov.au/fwo/IDS60801/IDS60801.94804.axf

JavaScript Object Notation format (JSON) in row-major order
http://www.bom.gov.au/fwo/IDS60801/IDS60801.94804.json